Airfield :
LOGIN :

Register | Disclaimer

   EN    FR    IT 

 










Legend :    VFR   Marginal VFR   IFR   Intensive IFR   Very Intensive IFR
Visi :
Ceiling :
>= 8 km
>= 3000ft
5 to 8 km
1000 to 3000 ft
1500m to 5 km
500 to 1000 ft
800 to 1500m
200 to 500 ft
< 800m
< 200 ft
Symbols :   Thunderstorms  Fog  Heavy snow  Heavy precipitations  Wind > 20 kt
SIGMETs :     Misc.  Thunderstorms  Icing  Turbulence  Mountain Waves  Volcanic Ashes






- Airport Elevation : 19 ft
- IATA code : BEB


EGPL - Benbecula

CURRENT METAR :
  • 272250Z AUTO 17012KT 9999 FEW048/// 10/06 Q1000

EXPIRED METARs :
  • 272220Z AUTO 17010KT 9999 NCD 10/06 Q1000
  • 272150Z AUTO 18015KT 9999 FEW042/// 10/08 Q1000
  • 272120Z AUTO 20015KT 9999 NCD 11/07 Q1000
  • 272050Z AUTO 22017KT 9999 FEW029/// 12/06 Q1000
  • 272020Z AUTO 15009KT 130V190 9999 FEW033/// 09/07 Q0999

TAF TAF EGPL
Valid from the 27 at 15:00 until the 28 at 00:00 UTC


271402Z 2715/2724 24014KT 9999 SCT025
TEMPO 2715/2724 6000 SHRA
PROB30
TEMPO 2715/2724 25018G28KT 4000 +SHRA BKN014 BKN020CB
ATIS : +44 1870 604 818



MET'MAP, your aeronautical weather chart ! - Copyright ORBIFLY December 2007 - Disclaimer

ORBIFLY MET'MAP TEAM :

Programming & Development : Alexandra Zaïnal
Concept & original design : Baudouin d'Aumeries
Assistance for programming : Marc-Olivier Méhu
Technical & hardware support : Manuel Goepfert

Contact : metmap@orbifly.com




SOURCES & CREDITS :

   NOAA